createdAt,value
2018-04-28T00:00:52.485Z,11.94
2018-04-28T00:01:52.421Z,12.00
2018-04-28T00:02:52.350Z,12.00
2018-04-28T00:03:52.291Z,12.00
2018-04-28T00:04:52.235Z,11.99
2018-04-28T00:05:52.156Z,12.03
2018-04-28T00:06:52.095Z,12.04
2018-04-28T00:07:52.040Z,12.06
2018-04-28T00:08:51.972Z,12.02
2018-04-28T00:09:51.905Z,11.95
2018-04-28T00:10:51.841Z,11.90
2018-04-28T00:11:51.772Z,11.84
2018-04-28T00:12:51.707Z,11.70
2018-04-28T00:13:51.641Z,11.84
2018-04-28T00:14:51.586Z,11.83
2018-04-28T00:15:51.520Z,11.86
2018-04-28T00:16:51.449Z,11.77
2018-04-28T00:17:51.385Z,11.81
2018-04-28T00:18:51.328Z,11.73
2018-04-28T00:19:51.260Z,11.83
2018-04-28T00:20:51.196Z,11.91
2018-04-28T00:21:51.134Z,11.90
2018-04-28T00:22:51.065Z,11.94
2018-04-28T00:23:51.000Z,11.91
2018-04-28T00:24:50.936Z,11.84
2018-04-28T00:25:50.874Z,11.97
2018-04-28T00:26:50.810Z,11.86
2018-04-28T00:27:50.741Z,11.70
2018-04-28T00:28:50.689Z,11.86
2018-04-28T00:29:50.622Z,11.73
2018-04-28T00:30:50.545Z,11.69
2018-04-28T00:31:50.484Z,11.73
2018-04-28T00:32:50.422Z,11.86
2018-04-28T00:33:50.357Z,11.73
2018-04-28T00:34:50.297Z,11.87
2018-04-28T00:35:50.226Z,11.84
2018-04-28T00:36:50.161Z,11.87
2018-04-28T00:37:50.096Z,11.97
2018-04-28T00:38:50.038Z,11.88
2018-04-28T00:39:49.968Z,11.94
2018-04-28T00:40:49.906Z,11.94
2018-04-28T00:41:49.841Z,11.88
2018-04-28T00:42:49.774Z,11.88
2018-04-28T00:43:49.713Z,11.75
2018-04-28T00:44:49.656Z,11.88
2018-04-28T00:45:49.581Z,11.84
2018-04-28T00:46:49.515Z,11.73
2018-04-28T00:47:49.464Z,11.80
2018-04-28T00:48:49.391Z,11.86
2018-04-28T00:49:49.317Z,11.78
2018-04-28T00:50:49.258Z,11.75
2018-04-28T00:51:49.199Z,11.77
2018-04-28T00:52:49.128Z,11.84
2018-04-28T00:53:49.062Z,11.81
2018-04-28T00:54:48.997Z,11.72
2018-04-28T00:55:48.931Z,11.65
2018-04-28T00:56:48.869Z,11.55
2018-04-28T00:57:48.818Z,11.66
2018-04-28T00:58:48.743Z,11.70
2018-04-28T00:59:48.674Z,11.60
2018-04-28T01:00:48.613Z,11.50
2018-04-28T01:01:48.547Z,11.51
2018-04-28T01:02:48.477Z,11.65
2018-04-28T01:03:48.411Z,11.68
2018-04-28T01:04:48.352Z,11.65
2018-04-28T01:05:48.288Z,11.57
2018-04-28T01:06:48.221Z,11.60
2018-04-28T01:07:48.154Z,11.66
2018-04-28T01:08:48.100Z,11.73
2018-04-28T01:09:48.040Z,11.62
2018-04-28T01:10:47.978Z,11.73
2018-04-28T01:11:47.907Z,11.65
2018-04-28T01:12:47.834Z,11.65
2018-04-28T01:13:47.771Z,11.59
2018-04-28T01:14:47.705Z,11.51
2018-04-28T01:15:47.651Z,11.47
2018-04-28T01:16:47.572Z,11.54
2018-04-28T01:17:47.506Z,11.45
2018-04-28T01:18:47.453Z,11.50
2018-04-28T01:19:47.379Z,11.50
2018-04-28T01:20:47.316Z,11.43
2018-04-28T01:21:47.244Z,11.54
2018-04-28T01:22:47.181Z,11.35
2018-04-28T01:23:47.121Z,11.22
2018-04-28T01:24:47.056Z,11.25
2018-04-28T01:25:46.988Z,11.32
2018-04-28T01:26:46.922Z,11.37
2018-04-28T01:27:46.865Z,11.26
2018-04-28T01:28:46.803Z,11.26
2018-04-28T01:29:46.725Z,11.26
2018-04-28T01:30:46.663Z,11.25
2018-04-28T01:31:46.598Z,11.35
2018-04-28T01:32:46.538Z,11.33
2018-04-28T01:33:46.474Z,11.27
2018-04-28T01:34:46.406Z,11.29
2018-04-28T01:35:46.339Z,11.35
2018-04-28T01:36:46.276Z,11.26
2018-04-28T01:37:46.214Z,11.18
2018-04-28T01:38:46.144Z,11.10
2018-04-28T01:39:46.077Z,11.07
2018-04-28T01:40:46.014Z,11.10
2018-04-28T01:41:45.948Z,11.08
2018-04-28T01:42:45.886Z,10.93
2018-04-28T01:43:45.818Z,10.96
2018-04-28T01:44:45.754Z,10.89
2018-04-28T01:45:45.694Z,10.89
2018-04-28T01:46:45.624Z,10.96
2018-04-28T01:47:45.562Z,10.96
2018-04-28T01:48:45.523Z,10.93
2018-04-28T01:49:45.422Z,10.93
2018-04-28T01:50:45.366Z,10.86
2018-04-28T01:51:45.306Z,10.78
2018-04-28T01:52:45.239Z,10.69
2018-04-28T01:53:45.162Z,10.69
2018-04-28T01:54:45.104Z,10.69
2018-04-28T01:55:45.047Z,10.64
2018-04-28T01:56:44.975Z,10.67
2018-04-28T01:57:44.906Z,10.79
2018-04-28T01:58:44.838Z,10.81
2018-04-28T01:59:44.776Z,10.86
2018-04-28T02:00:44.705Z,10.84
2018-04-28T02:01:44.654Z,10.78
2018-04-28T02:02:44.587Z,10.81
2018-04-28T02:03:44.518Z,10.90
2018-04-28T02:04:44.452Z,10.87
2018-04-28T02:05:44.400Z,10.92
2018-04-28T02:06:44.318Z,10.87
2018-04-28T02:07:44.275Z,10.87
2018-04-28T02:08:44.190Z,10.87
2018-04-28T02:09:44.123Z,10.79
2018-04-28T02:10:44.054Z,10.75
2018-04-28T02:11:43.992Z,10.74
2018-04-28T02:12:43.928Z,10.84
2018-04-28T02:13:43.862Z,10.86
2018-04-28T02:14:43.867Z,10.79
2018-04-28T02:15:43.736Z,10.75
2018-04-28T02:16:43.669Z,10.76
2018-04-28T02:17:43.603Z,10.84
2018-04-28T02:18:43.535Z,10.71
2018-04-28T02:19:43.477Z,10.68
2018-04-28T02:20:43.406Z,10.67
2018-04-28T02:21:43.336Z,10.63
2018-04-28T02:22:43.276Z,10.67
2018-04-28T02:23:43.215Z,10.60
2018-04-28T02:24:43.144Z,10.54
2018-04-28T02:25:43.083Z,10.57
2018-04-28T02:26:43.020Z,10.61
2018-04-28T02:27:42.949Z,10.60
2018-04-28T02:28:42.882Z,10.61
2018-04-28T02:29:42.818Z,10.63
2018-04-28T02:30:42.752Z,10.61
2018-04-28T02:31:42.688Z,10.72
2018-04-28T02:32:42.638Z,10.63
2018-04-28T02:33:42.558Z,10.54
2018-04-28T02:34:42.493Z,10.61
2018-04-28T02:35:42.441Z,10.56
2018-04-28T02:36:42.362Z,10.64
2018-04-28T02:37:42.297Z,10.37
2018-04-28T02:38:42.233Z,10.38
2018-04-28T02:39:42.169Z,10.44
2018-04-28T02:40:42.099Z,10.38
2018-04-28T02:41:42.036Z,10.37
2018-04-28T02:42:41.980Z,10.42
2018-04-28T02:43:41.907Z,10.38
2018-04-28T02:44:41.835Z,10.53
2018-04-28T02:45:41.770Z,10.51
2018-04-28T02:46:41.708Z,10.41
2018-04-28T02:47:41.644Z,10.51
2018-04-28T02:48:41.576Z,10.53
2018-04-28T02:49:41.514Z,10.57
2018-04-28T02:50:41.447Z,10.35
2018-04-28T02:51:41.380Z,10.48
2018-04-28T02:52:41.320Z,10.46
2018-04-28T02:53:41.245Z,10.40
2018-04-28T02:54:41.184Z,10.28
2018-04-28T02:55:41.119Z,10.31
2018-04-28T02:56:41.050Z,10.30
2018-04-28T02:57:40.986Z,10.28
2018-04-28T02:58:40.924Z,10.26
2018-04-28T02:59:40.853Z,10.25
2018-04-28T03:00:40.800Z,10.23
2018-04-28T03:01:40.725Z,10.19
2018-04-28T03:02:40.656Z,10.23
2018-04-28T03:03:40.591Z,10.34
2018-04-28T03:04:40.531Z,10.26
2018-04-28T03:05:40.467Z,10.28
2018-04-28T03:06:40.407Z,10.30
2018-04-28T03:07:40.333Z,10.26
2018-04-28T03:08:40.265Z,10.17
2018-04-28T03:09:40.201Z,10.28
2018-04-28T03:10:40.132Z,10.22
2018-04-28T03:11:40.067Z,10.22
2018-04-28T03:12:40.005Z,10.12
2018-04-28T03:13:39.937Z,10.07
2018-04-28T03:14:39.872Z,10.12
2018-04-28T03:15:39.805Z,10.13
2018-04-28T03:16:39.743Z,10.09
2018-04-28T03:17:39.679Z,10.22
2018-04-28T03:18:39.608Z,10.19
2018-04-28T03:19:39.542Z,10.22
2018-04-28T03:20:39.481Z,10.16
2018-04-28T03:21:39.417Z,10.13
2018-04-28T03:22:39.344Z,10.12
2018-04-28T03:23:39.314Z,10.04
2018-04-28T03:24:39.224Z,10.09
2018-04-28T03:25:39.149Z,10.02
2018-04-28T03:26:39.083Z,10.10
2018-04-28T03:27:39.015Z,10.01
2018-04-28T03:28:38.952Z,9.87
2018-04-28T03:29:38.886Z,10.05
2018-04-28T03:30:38.826Z,10.01
2018-04-28T03:31:38.753Z,10.01
2018-04-28T03:32:38.688Z,10.10
2018-04-28T03:33:38.623Z,10.12
2018-04-28T03:34:38.559Z,10.16
2018-04-28T03:35:38.492Z,10.22
2018-04-28T03:36:38.425Z,10.31
2018-04-28T03:37:38.358Z,10.30
2018-04-28T03:38:38.297Z,10.40
2018-04-28T03:39:38.245Z,10.40
2018-04-28T03:40:38.162Z,10.41
2018-04-28T03:41:38.098Z,10.51
2018-04-28T03:42:38.035Z,10.59
2018-04-28T03:43:37.967Z,10.63
2018-04-28T03:44:37.917Z,10.68
2018-04-28T03:45:37.834Z,10.71
2018-04-28T03:46:37.765Z,10.57
2018-04-28T03:47:37.709Z,10.46
2018-04-28T03:48:37.635Z,10.26
2018-04-28T03:49:37.568Z,10.26
2018-04-28T03:50:37.549Z,10.31
2018-04-28T03:51:37.439Z,10.35
2018-04-28T03:52:37.377Z,10.41
2018-04-28T03:53:37.304Z,10.53
2018-04-28T03:54:37.242Z,10.56
2018-04-28T03:55:37.194Z,10.63
2018-04-28T03:56:37.110Z,10.64
2018-04-28T03:57:37.043Z,10.68
2018-04-28T03:58:36.979Z,10.76
2018-04-28T03:59:36.914Z,10.84
2018-04-28T04:00:36.843Z,10.78
2018-04-28T04:01:36.778Z,10.69
2018-04-28T04:02:36.717Z,10.57
2018-04-28T04:03:36.653Z,10.64
2018-04-28T04:04:36.587Z,10.72
2018-04-28T04:05:36.519Z,10.75
2018-04-28T04:06:36.452Z,10.64
2018-04-28T04:07:36.390Z,10.64
2018-04-28T04:08:36.323Z,10.71
2018-04-28T04:09:36.262Z,10.76
2018-04-28T04:10:36.190Z,10.64
2018-04-28T04:11:36.128Z,10.74
2018-04-28T04:12:36.062Z,10.78
2018-04-28T04:13:35.997Z,10.81
2018-04-28T04:14:35.924Z,10.75
2018-04-28T04:15:35.863Z,10.90
2018-04-28T04:16:35.799Z,10.79
2018-04-28T04:17:35.729Z,10.78
2018-04-28T04:18:35.669Z,10.81
2018-04-28T04:19:35.601Z,10.78
2018-04-28T04:20:35.538Z,10.84
2018-04-28T04:21:35.472Z,10.84
2018-04-28T04:22:35.404Z,10.79
2018-04-28T04:23:35.341Z,10.81
2018-04-28T04:24:35.276Z,10.82
2018-04-28T04:25:35.213Z,10.92
2018-04-28T04:26:35.242Z,10.96
2018-04-28T04:27:35.075Z,10.94
2018-04-28T04:28:35.011Z,10.96
2018-04-28T04:29:34.944Z,10.94
2018-04-28T04:30:34.881Z,10.86
2018-04-28T04:31:34.818Z,10.78
2018-04-28T04:32:34.749Z,10.76
2018-04-28T04:33:34.687Z,10.68
2018-04-28T04:34:34.621Z,10.68
2018-04-28T04:35:34.555Z,10.68
2018-04-28T04:36:34.492Z,10.56
2018-04-28T04:37:34.467Z,10.61
2018-04-28T04:38:34.351Z,10.76
2018-04-28T04:39:34.292Z,10.78
2018-04-28T04:40:34.228Z,10.76
2018-04-28T04:41:34.159Z,10.93
2018-04-28T04:42:34.097Z,11.02
2018-04-28T04:43:34.029Z,11.00
2018-04-28T04:44:33.966Z,11.00
2018-04-28T04:45:33.900Z,11.02
2018-04-28T04:46:33.834Z,11.11
2018-04-28T04:47:33.766Z,11.35
2018-04-28T04:48:33.706Z,11.37
2018-04-28T04:49:33.671Z,11.41
2018-04-28T04:50:33.578Z,11.29
2018-04-28T04:51:33.509Z,11.37
2018-04-28T04:52:33.444Z,11.47
2018-04-28T04:53:33.374Z,11.45
2018-04-28T04:54:33.346Z,11.48
2018-04-28T04:55:33.265Z,11.48
2018-04-28T04:56:33.185Z,11.47
2018-04-28T04:57:33.136Z,11.54
2018-04-28T04:58:33.051Z,11.44
2018-04-28T04:59:32.984Z,11.45
2018-04-28T05:00:32.921Z,11.50
2018-04-28T05:01:32.860Z,11.44
2018-04-28T05:02:32.792Z,11.50
2018-04-28T05:03:32.734Z,11.51
2018-04-28T05:04:32.663Z,11.65
2018-04-28T05:05:32.598Z,11.72
2018-04-28T05:06:32.533Z,11.70
2018-04-28T05:07:32.467Z,11.81
2018-04-28T05:08:32.459Z,11.73
2018-04-28T05:09:32.337Z,11.69
2018-04-28T05:10:32.273Z,11.72
2018-04-28T05:11:32.207Z,11.69
2018-04-28T05:12:32.141Z,11.68
2018-04-28T05:13:32.079Z,11.75
2018-04-28T05:14:32.011Z,11.69
2018-04-28T05:15:31.948Z,11.65
2018-04-28T05:16:31.898Z,11.90
2018-04-28T05:17:31.820Z,12.00
2018-04-28T05:18:31.748Z,12.13
2018-04-28T05:19:31.690Z,12.20
2018-04-28T05:20:31.648Z,12.22
2018-04-28T05:21:31.559Z,12.29
2018-04-28T05:22:31.493Z,12.24
2018-04-28T05:23:31.430Z,12.15
2018-04-28T05:24:31.361Z,12.15
2018-04-28T05:25:31.299Z,12.21
2018-04-28T05:26:31.236Z,12.22
2018-04-28T05:27:31.176Z,12.21
2018-04-28T05:28:31.110Z,12.06
2018-04-28T05:29:31.040Z,12.17
2018-04-28T05:30:30.977Z,12.15
2018-04-28T05:31:30.911Z,12.18
2018-04-28T05:32:30.847Z,12.12
2018-04-28T05:33:30.781Z,12.10
2018-04-28T05:34:30.741Z,12.15
2018-04-28T05:35:30.655Z,12.13
2018-04-28T05:36:30.595Z,12.04
2018-04-28T05:37:30.525Z,12.12
2018-04-28T05:38:30.469Z,12.12
2018-04-28T05:39:30.421Z,12.31
2018-04-28T05:40:30.334Z,12.36
2018-04-28T05:41:30.271Z,12.36
2018-04-28T05:42:30.208Z,12.36
2018-04-28T05:43:30.145Z,12.57
2018-04-28T05:44:30.072Z,12.64
2018-04-28T05:45:30.008Z,12.79
2018-04-28T05:46:29.947Z,12.75
2018-04-28T05:47:29.882Z,12.65
2018-04-28T05:48:29.819Z,12.61
2018-04-28T05:49:29.757Z,12.57
2018-04-28T05:50:29.688Z,12.54
2018-04-28T05:51:29.622Z,12.60
2018-04-28T05:52:29.564Z,12.60
2018-04-28T05:53:29.496Z,12.55
2018-04-28T05:54:29.428Z,12.76
2018-04-28T05:55:29.365Z,12.85
2018-04-28T05:56:29.304Z,12.91
2018-04-28T05:57:29.236Z,12.85
2018-04-28T05:58:29.177Z,13.05
2018-04-28T05:59:29.111Z,13.08
2018-04-28T06:00:29.050Z,13.01
2018-04-28T06:01:28.984Z,13.01
2018-04-28T06:02:28.922Z,13.03
2018-04-28T06:03:28.903Z,13.19
2018-04-28T06:04:28.786Z,13.25
2018-04-28T06:05:28.726Z,13.23
2018-04-28T06:06:28.665Z,13.30
2018-04-28T06:07:28.608Z,13.20
2018-04-28T06:08:28.538Z,13.20
2018-04-28T06:09:28.472Z,13.18
2018-04-28T06:10:28.431Z,13.11
2018-04-28T06:11:28.347Z,13.01
2018-04-28T06:12:28.285Z,12.95
2018-04-28T06:13:28.220Z,12.94
2018-04-28T06:14:28.152Z,12.94
2018-04-28T06:15:28.104Z,12.91
2018-04-28T06:16:28.030Z,12.83
2018-04-28T06:17:27.964Z,12.91
2018-04-28T06:18:27.903Z,12.91
2018-04-28T06:19:27.853Z,12.82
2018-04-28T06:20:27.767Z,12.79
2018-04-28T06:21:27.706Z,12.85
2018-04-28T06:22:27.648Z,12.83
2018-04-28T06:23:27.580Z,12.90
2018-04-28T06:24:27.520Z,12.86
2018-04-28T06:25:27.459Z,12.94
2018-04-28T06:26:27.388Z,12.83
2018-04-28T06:27:27.326Z,12.93
2018-04-28T06:28:27.272Z,13.01
2018-04-28T06:29:27.199Z,13.01
2018-04-28T06:30:27.132Z,12.98
2018-04-28T06:31:27.072Z,12.98
2018-04-28T06:32:27.004Z,12.87
2018-04-28T06:33:26.941Z,12.97
2018-04-28T06:34:26.879Z,13.04
2018-04-28T06:35:26.816Z,13.09
2018-04-28T06:36:26.750Z,13.01
2018-04-28T06:37:26.688Z,13.16
2018-04-28T06:38:26.624Z,13.25
2018-04-28T06:39:26.557Z,13.35
2018-04-28T06:40:26.496Z,13.44
2018-04-28T06:41:26.434Z,13.62
2018-04-28T06:42:26.365Z,13.70
2018-04-28T06:43:26.301Z,13.79
2018-04-28T06:44:26.251Z,13.93
2018-04-28T06:45:26.174Z,13.90
2018-04-28T06:46:26.118Z,14.05
2018-04-28T06:47:26.054Z,14.20
2018-04-28T06:48:25.988Z,14.26
2018-04-28T06:49:25.926Z,14.40
2018-04-28T06:50:25.856Z,14.55
2018-04-28T06:51:25.793Z,14.70
2018-04-28T06:52:25.731Z,14.68
2018-04-28T06:53:25.666Z,14.82
2018-04-28T06:54:25.605Z,14.96
2018-04-28T06:55:25.541Z,14.89
2018-04-28T06:56:25.478Z,14.88
2018-04-28T06:57:25.414Z,14.73
2018-04-28T06:58:25.361Z,14.86
2018-04-28T06:59:25.291Z,14.91
2018-04-28T07:00:25.227Z,15.00
2018-04-28T07:01:25.164Z,15.03
2018-04-28T07:02:25.099Z,14.99
2018-04-28T07:03:25.043Z,15.07
2018-04-28T07:04:24.975Z,15.04
2018-04-28T07:05:24.914Z,15.17
2018-04-28T07:06:24.852Z,15.18
2018-04-28T07:07:24.787Z,15.18
2018-04-28T07:08:24.724Z,15.35
2018-04-28T07:09:24.666Z,15.37
2018-04-28T07:10:24.597Z,15.39
2018-04-28T07:11:24.529Z,15.51
2018-04-28T07:12:24.482Z,15.54
2018-04-28T07:13:24.413Z,15.65
2018-04-28T07:14:24.348Z,15.76
2018-04-28T07:15:24.285Z,15.73
2018-04-28T07:16:24.223Z,15.73
2018-04-28T07:17:24.162Z,15.84
2018-04-28T07:18:24.101Z,15.80
2018-04-28T07:19:24.040Z,15.80
2018-04-28T07:20:23.976Z,15.84
2018-04-28T07:21:23.915Z,15.84
2018-04-28T07:22:23.852Z,16.00
2018-04-28T07:23:23.786Z,16.00
2018-04-28T07:24:23.728Z,16.12
2018-04-28T07:25:23.679Z,16.09
2018-04-28T07:26:23.605Z,16.17
2018-04-28T07:27:23.550Z,16.24
2018-04-28T07:28:23.480Z,16.35
2018-04-28T07:29:23.426Z,16.28
2018-04-28T07:30:23.361Z,16.20
2018-04-28T07:31:23.295Z,16.24
2018-04-28T07:32:23.237Z,16.32
2018-04-28T07:33:23.179Z,16.24
2018-04-28T07:34:23.108Z,16.21
2018-04-28T07:35:23.127Z,16.29
2018-04-28T07:36:22.985Z,16.41
2018-04-28T07:37:22.922Z,16.35
2018-04-28T07:38:22.867Z,16.36
2018-04-28T07:39:22.809Z,16.42
2018-04-28T07:40:22.742Z,16.42
2018-04-28T07:41:22.681Z,16.54
2018-04-28T07:42:22.643Z,16.42
2018-04-28T07:43:22.555Z,16.42
2018-04-28T07:44:22.497Z,16.47
2018-04-28T07:45:22.443Z,16.43
2018-04-28T07:46:22.369Z,16.51
2018-04-28T07:47:22.309Z,16.56
2018-04-28T07:48:22.258Z,16.47
2018-04-28T07:49:22.185Z,16.51
2018-04-28T07:50:22.133Z,16.49
2018-04-28T07:51:22.067Z,16.51
2018-04-28T07:52:22.016Z,16.50
2018-04-28T07:53:21.940Z,16.65
2018-04-28T07:54:21.879Z,16.69
2018-04-28T07:55:21.818Z,16.78
2018-04-28T07:56:21.755Z,16.76
2018-04-28T07:57:21.695Z,16.90
2018-04-28T07:58:21.641Z,16.89
2018-04-28T07:59:21.573Z,16.93
2018-04-28T08:00:21.647Z,17.02
2018-04-28T08:01:21.449Z,17.02
2018-04-28T08:02:21.389Z,16.97
2018-04-28T08:03:21.337Z,17.04
2018-04-28T08:04:21.267Z,17.09
2018-04-28T08:05:21.213Z,17.19
2018-04-28T08:06:21.151Z,17.20
2018-04-28T08:07:21.081Z,17.39
2018-04-28T08:08:21.018Z,17.42
2018-04-28T08:09:20.958Z,17.52
2018-04-28T08:10:20.909Z,17.49
2018-04-28T08:11:20.839Z,17.70
2018-04-28T08:12:20.780Z,17.67
2018-04-28T08:13:20.717Z,17.67
2018-04-28T08:14:20.653Z,17.65
2018-04-28T08:15:20.666Z,17.70
2018-04-28T08:16:20.536Z,17.74
2018-04-28T08:17:20.470Z,17.71
2018-04-28T08:18:20.409Z,17.79
2018-04-28T08:19:20.348Z,17.83
2018-04-28T08:20:20.286Z,17.86
2018-04-28T08:21:20.227Z,17.89
2018-04-28T08:22:20.169Z,17.89
2018-04-28T08:23:20.111Z,17.90
2018-04-28T08:24:20.045Z,17.95
2018-04-28T08:25:20.005Z,17.92
2018-04-28T08:26:19.930Z,17.95
2018-04-28T08:27:19.908Z,18.05
2018-04-28T08:28:19.823Z,18.15
2018-04-28T08:29:19.745Z,18.18
2018-04-28T08:30:19.727Z,18.18
2018-04-28T08:31:19.640Z,18.23
2018-04-28T08:32:19.568Z,18.29
2018-04-28T08:33:19.497Z,18.38
2018-04-28T08:34:19.437Z,18.38
2018-04-28T08:35:19.382Z,18.45
2018-04-28T08:36:19.325Z,18.40
2018-04-28T08:37:19.358Z,18.47
2018-04-28T08:38:19.194Z,18.52
2018-04-28T08:39:19.181Z,18.50
2018-04-28T08:40:19.098Z,18.43
2018-04-28T08:41:19.126Z,18.55
2018-04-28T08:42:18.952Z,18.60
2018-04-28T08:43:18.917Z,18.58
2018-04-28T08:44:18.843Z,18.55
2018-04-28T08:45:18.771Z,18.56
2018-04-28T08:46:18.707Z,18.59
2018-04-28T08:47:18.651Z,18.59
2018-04-28T08:48:18.594Z,18.53
2018-04-28T08:49:18.533Z,18.59
2018-04-28T08:50:18.468Z,18.62
2018-04-28T08:51:18.406Z,18.56
2018-04-28T08:52:18.355Z,18.50
2018-04-28T08:53:18.473Z,18.47
2018-04-28T08:54:18.230Z,18.50
2018-04-28T08:55:18.166Z,18.50
2018-04-28T08:56:18.116Z,18.52
2018-04-28T08:57:18.047Z,18.45
2018-04-28T08:58:17.987Z,18.49
2018-04-28T08:59:17.927Z,18.52
2018-04-28T09:00:17.867Z,18.45
2018-04-28T09:01:17.828Z,18.41
2018-04-28T09:02:17.777Z,18.35
2018-04-28T09:03:17.715Z,18.33
2018-04-28T09:04:17.627Z,18.35
2018-04-28T09:05:17.586Z,18.37
2018-04-28T09:06:17.509Z,18.35
2018-04-28T09:07:17.448Z,18.41
2018-04-28T09:08:17.388Z,18.40
2018-04-28T09:09:17.326Z,18.47
2018-04-28T09:10:17.267Z,18.52
2018-04-28T09:11:17.203Z,18.52
2018-04-28T09:12:17.149Z,18.58
2018-04-28T09:13:17.082Z,18.60
2018-04-28T09:14:17.030Z,18.59
2018-04-28T09:15:16.967Z,18.71
2018-04-28T09:16:16.907Z,18.66
2018-04-28T09:17:16.852Z,18.66
2018-04-28T09:18:16.785Z,18.66
2018-04-28T09:19:16.727Z,18.58
2018-04-28T09:20:16.669Z,18.56
2018-04-28T09:21:16.609Z,18.66
2018-04-28T09:22:16.544Z,18.63
2018-04-28T09:23:16.487Z,18.68
2018-04-28T09:24:16.420Z,18.70
2018-04-28T09:25:16.362Z,18.70
2018-04-28T09:26:16.330Z,18.73
2018-04-28T09:27:16.248Z,18.68
2018-04-28T09:28:16.184Z,18.71
2018-04-28T09:29:16.125Z,18.74
2018-04-28T09:30:16.061Z,18.73
2018-04-28T09:31:16.002Z,18.78
2018-04-28T09:32:15.941Z,18.83
2018-04-28T09:33:15.882Z,18.77
2018-04-28T09:34:15.835Z,18.81
2018-04-28T09:35:15.762Z,18.81
2018-04-28T09:36:15.701Z,18.90
2018-04-28T09:37:15.649Z,18.81
2018-04-28T09:38:15.585Z,18.80
2018-04-28T09:39:15.524Z,18.81
2018-04-28T09:40:15.476Z,18.71
2018-04-28T09:41:15.404Z,18.75
2018-04-28T09:42:15.342Z,18.71
2018-04-28T09:43:15.280Z,18.73
2018-04-28T09:44:15.220Z,18.80
2018-04-28T09:45:15.163Z,18.78
2018-04-28T09:46:15.100Z,18.81
2018-04-28T09:47:15.045Z,18.81
2018-04-28T09:48:14.985Z,18.86
2018-04-28T09:49:14.929Z,18.95
2018-04-28T09:50:14.864Z,18.98
2018-04-28T09:51:14.806Z,18.98
2018-04-28T09:52:14.770Z,18.98
2018-04-28T09:53:14.683Z,19.04
2018-04-28T09:54:14.622Z,19.02
2018-04-28T09:55:14.592Z,18.95
2018-04-28T09:56:14.511Z,18.96
2018-04-28T09:57:14.442Z,18.84
2018-04-28T09:58:14.390Z,19.07
2018-04-28T09:59:14.324Z,19.14
2018-04-28T10:00:14.277Z,19.02
2018-04-28T10:01:14.207Z,19.14
2018-04-28T10:02:14.146Z,18.99
2018-04-28T10:03:14.087Z,19.08
2018-04-28T10:04:14.025Z,19.14
2018-04-28T10:05:13.965Z,19.16
2018-04-28T10:06:13.909Z,19.14
2018-04-28T10:07:13.847Z,19.15
2018-04-28T10:08:13.786Z,19.00
2018-04-28T10:09:13.731Z,19.15
2018-04-28T10:10:13.669Z,19.08
2018-04-28T10:11:13.624Z,19.00
2018-04-28T10:12:13.548Z,19.09
2018-04-28T10:13:13.496Z,19.18
2018-04-28T10:14:13.429Z,19.24
2018-04-28T10:15:13.374Z,19.15
2018-04-28T10:16:13.312Z,19.11
2018-04-28T10:17:13.248Z,19.16
2018-04-28T10:18:13.191Z,19.19
2018-04-28T10:19:13.134Z,19.22
2018-04-28T10:20:13.184Z,19.26
2018-04-28T10:21:13.015Z,19.19
2018-04-28T10:22:12.956Z,19.19
2018-04-28T10:23:12.898Z,19.24
2018-04-28T10:24:12.837Z,19.24
2018-04-28T10:25:12.775Z,19.26
2018-04-28T10:26:12.719Z,19.30
2018-04-28T10:27:12.655Z,19.24
2018-04-28T10:28:12.598Z,19.02
2018-04-28T10:29:12.536Z,19.12
2018-04-28T10:30:12.477Z,19.24
2018-04-28T10:31:12.424Z,19.21
2018-04-28T10:32:12.359Z,19.31
2018-04-28T10:33:12.300Z,19.31
2018-04-28T10:34:12.246Z,19.36
2018-04-28T10:35:12.179Z,19.39
2018-04-28T10:36:12.134Z,19.47
2018-04-28T10:37:12.064Z,19.64
2018-04-28T10:38:12.011Z,19.55
2018-04-28T10:39:11.947Z,19.71
2018-04-28T10:40:11.884Z,19.73
2018-04-28T10:41:11.826Z,19.63
2018-04-28T10:42:11.770Z,19.66
2018-04-28T10:43:11.705Z,19.67
2018-04-28T10:44:11.648Z,19.64
2018-04-28T10:45:11.602Z,19.73
2018-04-28T10:46:11.531Z,19.88
2018-04-28T10:47:11.469Z,20.00
2018-04-28T10:48:11.411Z,20.11
2018-04-28T10:49:11.356Z,20.22
2018-04-28T10:50:11.294Z,20.25
2018-04-28T10:51:11.234Z,20.44
2018-04-28T10:52:11.177Z,20.65
2018-04-28T10:53:11.130Z,20.75
2018-04-28T10:54:11.061Z,20.69
2018-04-28T10:55:10.998Z,20.69
2018-04-28T10:56:10.943Z,20.52
2018-04-28T10:57:10.964Z,20.51
2018-04-28T10:58:10.829Z,20.58
2018-04-28T10:59:10.769Z,20.70
2018-04-28T11:00:10.714Z,20.78
2018-04-28T11:01:10.647Z,20.82
2018-04-28T11:02:10.594Z,20.84
2018-04-28T11:03:10.532Z,20.90
2018-04-28T11:04:10.478Z,21.17
2018-04-28T11:05:10.420Z,21.37
2018-04-28T11:06:10.413Z,21.55
2018-04-28T11:07:10.313Z,21.67
2018-04-28T11:08:10.245Z,21.85
2018-04-28T11:09:10.190Z,22.06
2018-04-28T11:10:10.136Z,22.07
2018-04-28T11:11:10.080Z,22.13
2018-04-28T11:12:10.027Z,22.23
2018-04-28T11:13:09.965Z,22.14
2018-04-28T11:14:09.916Z,22.00
2018-04-28T11:15:09.881Z,22.02
2018-04-28T11:16:09.802Z,22.22
2018-04-28T11:17:09.747Z,22.18
2018-04-28T11:18:09.688Z,21.98
2018-04-28T11:19:09.634Z,21.83
2018-04-28T11:20:09.582Z,21.96
2018-04-28T11:21:09.525Z,21.99
2018-04-28T11:22:09.475Z,22.06
2018-04-28T11:23:09.426Z,22.20
2018-04-28T11:24:09.365Z,22.28
2018-04-28T11:25:09.311Z,22.43
2018-04-28T11:26:09.258Z,22.54
2018-04-28T11:27:09.201Z,22.66
2018-04-28T11:28:09.150Z,22.66
2018-04-28T11:29:09.111Z,22.54
2018-04-28T11:30:09.060Z,22.57
2018-04-28T11:31:08.988Z,22.38
2018-04-28T11:32:08.947Z,22.35
2018-04-28T11:33:08.887Z,22.36
2018-04-28T11:34:08.835Z,22.39
2018-04-28T11:35:08.782Z,22.41
2018-04-28T11:36:08.732Z,22.32
2018-04-28T11:37:08.692Z,22.13
2018-04-28T11:38:08.684Z,22.14
2018-04-28T11:39:08.574Z,22.13
2018-04-28T11:40:08.531Z,22.23
2018-04-28T11:41:08.466Z,22.26
2018-04-28T11:42:08.418Z,22.36
2018-04-28T11:43:08.364Z,22.50
2018-04-28T11:44:08.311Z,22.63
2018-04-28T11:45:08.263Z,22.81
2018-04-28T11:46:08.227Z,22.99
2018-04-28T11:47:08.165Z,23.18
2018-04-28T11:48:08.120Z,23.48
2018-04-28T11:49:08.069Z,23.62
2018-04-28T11:50:08.018Z,23.80
2018-04-28T11:51:07.974Z,23.96
2018-04-28T11:52:07.922Z,24.17
2018-04-28T11:53:07.874Z,24.39
2018-04-28T11:54:07.827Z,24.51
2018-04-28T11:55:07.795Z,24.60
2018-04-28T11:56:07.735Z,24.73
2018-04-28T11:57:07.688Z,24.85
2018-04-28T11:58:07.640Z,24.66
2018-04-28T11:59:07.665Z,24.55
2018-04-28T12:00:07.554Z,24.35
2018-04-28T12:01:07.499Z,24.26
2018-04-28T12:02:07.456Z,24.17
2018-04-28T12:03:07.407Z,24.26
2018-04-28T12:04:07.363Z,23.98
2018-04-28T12:05:07.320Z,23.78
2018-04-28T12:06:07.271Z,23.65
2018-04-28T12:07:07.226Z,23.48
2018-04-28T12:08:07.176Z,23.44
2018-04-28T12:09:07.127Z,23.56
2018-04-28T12:10:07.720Z,23.76
2018-04-28T12:11:07.027Z,23.95
2018-04-28T12:12:06.984Z,24.20
2018-04-28T12:13:06.929Z,24.33
2018-04-28T12:14:06.885Z,24.36
2018-04-28T12:15:06.839Z,24.48
2018-04-28T12:16:06.787Z,24.60
2018-04-28T12:17:06.739Z,24.69
2018-04-28T12:18:06.694Z,24.68
2018-04-28T12:19:06.651Z,24.77
2018-04-28T12:20:06.599Z,24.89
2018-04-28T12:21:06.551Z,24.91
2018-04-28T12:22:06.514Z,24.85
2018-04-28T12:23:06.459Z,24.95
2018-04-28T12:24:06.409Z,25.23
2018-04-28T12:25:06.362Z,25.26
2018-04-28T12:26:06.322Z,25.33
2018-04-28T12:27:06.275Z,25.41
2018-04-28T12:28:06.241Z,25.43
2018-04-28T12:29:06.191Z,25.70
2018-04-28T12:30:06.254Z,25.60
2018-04-28T12:31:06.092Z,25.54
2018-04-28T12:32:06.050Z,25.65
2018-04-28T12:33:06.004Z,25.73
2018-04-28T12:34:05.959Z,25.91
2018-04-28T12:35:05.914Z,25.93
2018-04-28T12:36:05.928Z,25.98
2018-04-28T12:37:05.827Z,25.93
2018-04-28T12:38:05.788Z,25.69
2018-04-28T12:39:05.743Z,25.55
2018-04-28T12:40:05.696Z,25.55
2018-04-28T12:41:05.649Z,25.53
2018-04-28T12:42:05.606Z,25.54
2018-04-28T12:43:05.586Z,25.46
2018-04-28T12:44:05.516Z,25.69
2018-04-28T12:45:05.466Z,25.69
2018-04-28T12:46:05.447Z,25.87
2018-04-28T12:47:05.388Z,26.16
2018-04-28T12:48:05.343Z,26.23
2018-04-28T12:49:05.294Z,26.28
2018-04-28T12:50:05.259Z,26.22
2018-04-28T12:51:05.209Z,26.28
2018-04-28T12:52:05.169Z,26.28